Newport, Mississippi
Current Conditions -  °F | °C
As of 8:54 AM on Thursday 23 Oct 2014 (Local Time) from KMEM Reporting Station
Broken Clouds Broken Clouds  
Wind Chill: 52°   Ceiling: 25000
Heat Index: 52°   Visibility: 10mi
Dew Point: 43°   Wind: 5mph
Humidity: 71%   Direction: 100°E
Pressure: 30.21"   Gusts: NA
Location:  34.9155°N, 90.1878°W
Report Text: KMEM 231354Z 10004KT 10SM FEW150 BKN250 11/06 A3021 RMK AO2 SLP229 T01110061
Loading
Personal Weather Stations






























Interactive Weather Map New forecast layout! Learn more

10-Day Weather Forecast

Advertisements
Track Severe Weather on mobile